Terminal Aerodrome Forecast
Issued by NWS

Home | Current Version | Previous Version | Text Only | Print | Product List | Glossary On
Versions: 1 2 3 4 5 6 7 8 9 10 11 12 13 14 15 16
494
FTUS44 KOHX 081720
TAFCKV
TAF
KCKV 081720Z 0818/0918 28012G18KT P6SM BKN040 BKN050 OVC070
      TEMPO 0818/0822 5SM -RASN
     FM082200 30013G20KT 5SM -SN OVC035
     FM091100 31009KT 5SM -SN OVC025=

USA.gov is the U.S. government's official web portal to all federal, state and local government web resources and services.